sensor_id;sensor_type;location;lat;lon;timestamp;temperature;humidity
13093;DHT22;6612;49.568;11.000;2022-09-28T00:01:06;11.70;69.30
13093;DHT22;6612;49.568;11.000;2022-09-28T00:03:34;11.70;69.30
13093;DHT22;6612;49.568;11.000;2022-09-28T00:06:02;11.70;69.30
13093;DHT22;6612;49.568;11.000;2022-09-28T00:08:29;11.70;69.30
13093;DHT22;6612;49.568;11.000;2022-09-28T00:10:56;11.70;69.30
13093;DHT22;6612;49.568;11.000;2022-09-28T00:13:23;11.70;69.40
13093;DHT22;6612;49.568;11.000;2022-09-28T00:16:00;11.70;69.40
13093;DHT22;6612;49.568;11.000;2022-09-28T00:18:27;11.80;69.30
13093;DHT22;6612;49.568;11.000;2022-09-28T00:21:04;11.80;69.50
13093;DHT22;6612;49.568;11.000;2022-09-28T00:23:33;11.80;69.40
13093;DHT22;6612;49.568;11.000;2022-09-28T00:26:04;11.80;69.60
13093;DHT22;6612;49.568;11.000;2022-09-28T00:28:31;11.80;69.70
13093;DHT22;6612;49.568;11.000;2022-09-28T00:30:59;11.80;69.80
13093;DHT22;6612;49.568;11.000;2022-09-28T00:33:26;11.90;69.80
13093;DHT22;6612;49.568;11.000;2022-09-28T00:35:56;11.90;69.80
13093;DHT22;6612;49.568;11.000;2022-09-28T00:38:25;11.90;69.70
13093;DHT22;6612;49.568;11.000;2022-09-28T00:40:52;11.90;69.60
13093;DHT22;6612;49.568;11.000;2022-09-28T00:43:21;11.90;69.50
13093;DHT22;6612;49.568;11.000;2022-09-28T00:45:53;11.90;69.30
13093;DHT22;6612;49.568;11.000;2022-09-28T00:48:22;11.90;69.20
13093;DHT22;6612;49.568;11.000;2022-09-28T00:50:50;11.90;69.20
13093;DHT22;6612;49.568;11.000;2022-09-28T00:53:21;11.90;69.20
13093;DHT22;6612;49.568;11.000;2022-09-28T00:55:51;11.90;69.30
13093;DHT22;6612;49.568;11.000;2022-09-28T00:58:22;11.90;69.30
13093;DHT22;6612;49.568;11.000;2022-09-28T01:00:52;11.90;69.40
13093;DHT22;6612;49.568;11.000;2022-09-28T01:03:21;11.90;69.40
13093;DHT22;6612;49.568;11.000;2022-09-28T01:05:49;11.90;69.40
13093;DHT22;6612;49.568;11.000;2022-09-28T01:08:18;11.90;69.50
13093;DHT22;6612;49.568;11.000;2022-09-28T01:10:47;11.90;69.50
13093;DHT22;6612;49.568;11.000;2022-09-28T01:13:16;12.00;69.70
13093;DHT22;6612;49.568;11.000;2022-09-28T01:15:50;11.90;69.50
13093;DHT22;6612;49.568;11.000;2022-09-28T01:18:24;12.00;69.70
13093;DHT22;6612;49.568;11.000;2022-09-28T01:20:59;12.00;69.70
13093;DHT22;6612;49.568;11.000;2022-09-28T01:23:59;12.00;69.70
13093;DHT22;6612;49.568;11.000;2022-09-28T01:26:49;12.00;69.40
13093;DHT22;6612;49.568;11.000;2022-09-28T01:29:30;12.00;69.40
13093;DHT22;6612;49.568;11.000;2022-09-28T01:32:02;12.00;69.50
13093;DHT22;6612;49.568;11.000;2022-09-28T01:34:37;12.00;69.60
13093;DHT22;6612;49.568;11.000;2022-09-28T01:37:09;12.00;69.50
13093;DHT22;6612;49.568;11.000;2022-09-28T01:39:39;12.00;69.60
13093;DHT22;6612;49.568;11.000;2022-09-28T01:42:12;12.10;69.80
13093;DHT22;6612;49.568;11.000;2022-09-28T01:44:42;12.10;69.80
13093;DHT22;6612;49.568;11.000;2022-09-28T01:47:14;12.10;69.90
13093;DHT22;6612;49.568;11.000;2022-09-28T01:49:44;12.10;69.90
13093;DHT22;6612;49.568;11.000;2022-09-28T01:52:16;12.10;69.80
13093;DHT22;6612;49.568;11.000;2022-09-28T01:54:47;12.10;69.90
13093;DHT22;6612;49.568;11.000;2022-09-28T01:57:21;12.10;70.00
13093;DHT22;6612;49.568;11.000;2022-09-28T01:59:56;12.10;69.90
13093;DHT22;6612;49.568;11.000;2022-09-28T02:02:27;12.10;70.10
13093;DHT22;6612;49.568;11.000;2022-09-28T02:05:00;12.10;70.20
13093;DHT22;6612;49.568;11.000;2022-09-28T02:07:35;12.10;70.20
13093;DHT22;6612;49.568;11.000;2022-09-28T02:10:07;12.10;70.30
13093;DHT22;6612;49.568;11.000;2022-09-28T02:12:39;12.20;70.50
13093;DHT22;6612;49.568;11.000;2022-09-28T02:15:11;12.20;70.60
13093;DHT22;6612;49.568;11.000;2022-09-28T02:17:40;12.20;70.60
13093;DHT22;6612;49.568;11.000;2022-09-28T02:20:08;12.10;71.30
13093;DHT22;6612;49.568;11.000;2022-09-28T02:22:38;12.20;70.70
13093;DHT22;6612;49.568;11.000;2022-09-28T02:25:10;12.20;70.70
13093;DHT22;6612;49.568;11.000;2022-09-28T02:27:42;12.20;70.70
13093;DHT22;6612;49.568;11.000;2022-09-28T02:30:11;12.20;70.80
13093;DHT22;6612;49.568;11.000;2022-09-28T02:32:41;12.20;70.90
13093;DHT22;6612;49.568;11.000;2022-09-28T02:35:12;12.20;71.00
13093;DHT22;6612;49.568;11.000;2022-09-28T02:37:39;12.20;71.00
13093;DHT22;6612;49.568;11.000;2022-09-28T02:40:13;12.20;71.10
13093;DHT22;6612;49.568;11.000;2022-09-28T02:42:50;12.20;71.10
13093;DHT22;6612;49.568;11.000;2022-09-28T02:45:28;12.20;71.10
13093;DHT22;6612;49.568;11.000;2022-09-28T02:48:06;12.20;71.20
13093;DHT22;6612;49.568;11.000;2022-09-28T02:50:41;12.20;71.20
13093;DHT22;6612;49.568;11.000;2022-09-28T02:53:29;12.20;71.30
13093;DHT22;6612;49.568;11.000;2022-09-28T02:56:10;12.20;71.30
13093;DHT22;6612;49.568;11.000;2022-09-28T02:58:47;12.20;71.60
13093;DHT22;6612;49.568;11.000;2022-09-28T03:01:23;12.20;71.50
13093;DHT22;6612;49.568;11.000;2022-09-28T03:03:56;12.20;71.60
13093;DHT22;6612;49.568;11.000;2022-09-28T03:06:28;12.10;71.70
13093;DHT22;6612;49.568;11.000;2022-09-28T03:09:01;12.20;72.10
13093;DHT22;6612;49.568;11.000;2022-09-28T03:11:35;12.10;72.00
13093;DHT22;6612;49.568;11.000;2022-09-28T03:14:05;12.20;72.20
13093;DHT22;6612;49.568;11.000;2022-09-28T03:16:32;12.10;72.00
13093;DHT22;6612;49.568;11.000;2022-09-28T03:18:59;12.10;71.80
13093;DHT22;6612;49.568;11.000;2022-09-28T03:21:26;12.10;71.80
13093;DHT22;6612;49.568;11.000;2022-09-28T03:23:53;12.00;71.90
13093;DHT22;6612;49.568;11.000;2022-09-28T03:26:20;12.00;72.00
13093;DHT22;6612;49.568;11.000;2022-09-28T03:28:47;12.00;72.10
13093;DHT22;6612;49.568;11.000;2022-09-28T03:31:15;12.00;72.10
13093;DHT22;6612;49.568;11.000;2022-09-28T03:33:42;11.90;72.00
13093;DHT22;6612;49.568;11.000;2022-09-28T03:36:09;12.00;72.10
13093;DHT22;6612;49.568;11.000;2022-09-28T03:38:36;11.90;72.10
13093;DHT22;6612;49.568;11.000;2022-09-28T03:41:03;11.90;72.90
13093;DHT22;6612;49.568;11.000;2022-09-28T03:43:30;11.90;72.20
13093;DHT22;6612;49.568;11.000;2022-09-28T03:45:59;11.90;72.40
13093;DHT22;6612;49.568;11.000;2022-09-28T03:48:29;11.90;72.50
13093;DHT22;6612;49.568;11.000;2022-09-28T03:50:58;11.90;72.40
13093;DHT22;6612;49.568;11.000;2022-09-28T03:53:26;11.90;72.40
13093;DHT22;6612;49.568;11.000;2022-09-28T03:55:54;11.90;72.60
13093;DHT22;6612;49.568;11.000;2022-09-28T03:58:22;11.80;72.70
13093;DHT22;6612;49.568;11.000;2022-09-28T04:00:49;11.80;72.90
13093;DHT22;6612;49.568;11.000;2022-09-28T04:03:17;11.80;72.90
13093;DHT22;6612;49.568;11.000;2022-09-28T04:05:52;11.90;73.10
13093;DHT22;6612;49.568;11.000;2022-09-28T04:08:20;11.80;73.30
13093;DHT22;6612;49.568;11.000;2022-09-28T04:10:47;11.80;73.10
13093;DHT22;6612;49.568;11.000;2022-09-28T04:13:14;11.80;73.20
13093;DHT22;6612;49.568;11.000;2022-09-28T04:15:42;11.80;73.20
13093;DHT22;6612;49.568;11.000;2022-09-28T04:18:10;11.80;73.20
13093;DHT22;6612;49.568;11.000;2022-09-28T04:20:38;11.80;73.30
13093;DHT22;6612;49.568;11.000;2022-09-28T04:23:07;11.80;73.40
13093;DHT22;6612;49.568;11.000;2022-09-28T04:25:35;11.80;73.50
13093;DHT22;6612;49.568;11.000;2022-09-28T04:28:02;11.80;73.50
13093;DHT22;6612;49.568;11.000;2022-09-28T04:30:47;11.80;73.70
13093;DHT22;6612;49.568;11.000;2022-09-28T04:33:14;11.80;73.80
13093;DHT22;6612;49.568;11.000;2022-09-28T04:35:42;11.80;73.80
13093;DHT22;6612;49.568;11.000;2022-09-28T04:38:10;11.80;74.00
13093;DHT22;6612;49.568;11.000;2022-09-28T04:40:38;11.80;74.30
13093;DHT22;6612;49.568;11.000;2022-09-28T04:43:05;11.90;74.40
13093;DHT22;6612;49.568;11.000;2022-09-28T04:45:32;11.90;74.30
13093;DHT22;6612;49.568;11.000;2022-09-28T04:48:00;11.90;74.50
13093;DHT22;6612;49.568;11.000;2022-09-28T04:50:27;11.90;74.70
13093;DHT22;6612;49.568;11.000;2022-09-28T04:52:55;11.90;74.20
13093;DHT22;6612;49.568;11.000;2022-09-28T04:55:24;11.90;74.90
13093;DHT22;6612;49.568;11.000;2022-09-28T04:57:53;11.90;75.00
13093;DHT22;6612;49.568;11.000;2022-09-28T05:00:20;12.00;75.20
13093;DHT22;6612;49.568;11.000;2022-09-28T05:02:48;11.90;74.50
13093;DHT22;6612;49.568;11.000;2022-09-28T05:05:16;12.00;75.20
13093;DHT22;6612;49.568;11.000;2022-09-28T05:07:43;12.00;75.20
13093;DHT22;6612;49.568;11.000;2022-09-28T05:10:11;12.00;75.20
13093;DHT22;6612;49.568;11.000;2022-09-28T05:12:40;12.00;75.30
13093;DHT22;6612;49.568;11.000;2022-09-28T05:15:08;12.10;75.50
13093;DHT22;6612;49.568;11.000;2022-09-28T05:17:36;12.10;75.50
13093;DHT22;6612;49.568;11.000;2022-09-28T05:20:04;12.10;75.50
13093;DHT22;6612;49.568;11.000;2022-09-28T05:22:32;12.10;75.60
13093;DHT22;6612;49.568;11.000;2022-09-28T05:25:00;12.10;75.60
13093;DHT22;6612;49.568;11.000;2022-09-28T05:27:28;12.10;75.60
13093;DHT22;6612;49.568;11.000;2022-09-28T05:29:57;12.10;75.50
13093;DHT22;6612;49.568;11.000;2022-09-28T05:32:24;12.20;75.80
13093;DHT22;6612;49.568;11.000;2022-09-28T05:34:51;12.20;75.80
13093;DHT22;6612;49.568;11.000;2022-09-28T05:37:20;12.20;75.80
13093;DHT22;6612;49.568;11.000;2022-09-28T05:39:47;12.20;75.80
13093;DHT22;6612;49.568;11.000;2022-09-28T05:42:15;12.20;76.00
13093;DHT22;6612;49.568;11.000;2022-09-28T05:44:42;12.20;76.00
13093;DHT22;6612;49.568;11.000;2022-09-28T05:47:10;12.20;76.20
13093;DHT22;6612;49.568;11.000;2022-09-28T05:49:38;12.30;76.30
13093;DHT22;6612;49.568;11.000;2022-09-28T05:52:04;12.20;76.30
13093;DHT22;6612;49.568;11.000;2022-09-28T05:54:32;12.30;76.40
13093;DHT22;6612;49.568;11.000;2022-09-28T05:56:59;12.40;76.50
13093;DHT22;6612;49.568;11.000;2022-09-28T05:59:26;12.30;76.40
13093;DHT22;6612;49.568;11.000;2022-09-28T06:01:55;12.40;76.60
13093;DHT22;6612;49.568;11.000;2022-09-28T06:04:24;12.40;76.70
13093;DHT22;6612;49.568;11.000;2022-09-28T06:06:51;12.40;76.90
13093;DHT22;6612;49.568;11.000;2022-09-28T06:09:18;12.40;76.90
13093;DHT22;6612;49.568;11.000;2022-09-28T06:11:45;12.50;77.00
13093;DHT22;6612;49.568;11.000;2022-09-28T06:14:12;12.50;77.00
13093;DHT22;6612;49.568;11.000;2022-09-28T06:16:39;12.50;77.20
13093;DHT22;6612;49.568;11.000;2022-09-28T06:19:07;12.60;77.50
13093;DHT22;6612;49.568;11.000;2022-09-28T06:21:36;12.60;77.60
13093;DHT22;6612;49.568;11.000;2022-09-28T06:24:03;12.60;77.70
13093;DHT22;6612;49.568;11.000;2022-09-28T06:26:31;12.70;77.70
13093;DHT22;6612;49.568;11.000;2022-09-28T06:28:58;12.70;78.30
13093;DHT22;6612;49.568;11.000;2022-09-28T06:31:25;12.70;77.70
13093;DHT22;6612;49.568;11.000;2022-09-28T06:33:56;12.80;78.00
13093;DHT22;6612;49.568;11.000;2022-09-28T06:36:27;12.80;78.30
13093;DHT22;6612;49.568;11.000;2022-09-28T06:38:57;12.90;78.40
13093;DHT22;6612;49.568;11.000;2022-09-28T06:41:24;12.90;78.40
13093;DHT22;6612;49.568;11.000;2022-09-28T06:43:51;13.00;78.40
13093;DHT22;6612;49.568;11.000;2022-09-28T06:46:18;13.00;78.50
13093;DHT22;6612;49.568;11.000;2022-09-28T06:48:45;13.10;78.60
13093;DHT22;6612;49.568;11.000;2022-09-28T06:51:12;13.10;79.40
13093;DHT22;6612;49.568;11.000;2022-09-28T06:53:40;13.20;78.70
13093;DHT22;6612;49.568;11.000;2022-09-28T06:56:09;13.20;78.70
13093;DHT22;6612;49.568;11.000;2022-09-28T06:58:37;13.30;78.80
13093;DHT22;6612;49.568;11.000;2022-09-28T07:01:04;13.30;78.90
13093;DHT22;6612;49.568;11.000;2022-09-28T07:03:32;13.40;79.00
13093;DHT22;6612;49.568;11.000;2022-09-28T07:05:59;13.40;79.00
13093;DHT22;6612;49.568;11.000;2022-09-28T07:08:27;13.50;79.00
13093;DHT22;6612;49.568;11.000;2022-09-28T07:10:54;13.50;78.70
13093;DHT22;6612;49.568;11.000;2022-09-28T07:13:24;13.60;78.40
13093;DHT22;6612;49.568;11.000;2022-09-28T07:15:53;13.60;78.00
13093;DHT22;6612;49.568;11.000;2022-09-28T07:18:20;13.60;77.70
13093;DHT22;6612;49.568;11.000;2022-09-28T07:20:48;13.60;77.50
13093;DHT22;6612;49.568;11.000;2022-09-28T07:23:15;13.60;77.70
13093;DHT22;6612;49.568;11.000;2022-09-28T07:25:43;13.70;77.80
13093;DHT22;6612;49.568;11.000;2022-09-28T07:28:13;13.70;78.00
13093;DHT22;6612;49.568;11.000;2022-09-28T07:30:42;13.70;78.60
13093;DHT22;6612;49.568;11.000;2022-09-28T07:33:11;13.80;79.00
13093;DHT22;6612;49.568;11.000;2022-09-28T07:35:39;13.80;78.80
13093;DHT22;6612;49.568;11.000;2022-09-28T07:38:08;13.80;78.60
13093;DHT22;6612;49.568;11.000;2022-09-28T07:40:35;13.90;78.70
13093;DHT22;6612;49.568;11.000;2022-09-28T07:43:21;13.90;79.90
13093;DHT22;6612;49.568;11.000;2022-09-28T07:45:50;14.00;79.30
13093;DHT22;6612;49.568;11.000;2022-09-28T07:48:19;14.10;79.60
13093;DHT22;6612;49.568;11.000;2022-09-28T07:50:46;14.20;80.00
13093;DHT22;6612;49.568;11.000;2022-09-28T07:53:16;14.30;80.10
13093;DHT22;6612;49.568;11.000;2022-09-28T07:55:48;14.30;79.60
13093;DHT22;6612;49.568;11.000;2022-09-28T07:58:15;14.40;79.20
13093;DHT22;6612;49.568;11.000;2022-09-28T08:00:44;14.50;79.20
13093;DHT22;6612;49.568;11.000;2022-09-28T08:03:14;14.50;79.00
13093;DHT22;6612;49.568;11.000;2022-09-28T08:05:42;14.60;78.60
13093;DHT22;6612;49.568;11.000;2022-09-28T08:08:09;14.60;78.50
13093;DHT22;6612;49.568;11.000;2022-09-28T08:10:36;14.70;78.40
13093;DHT22;6612;49.568;11.000;2022-09-28T08:13:04;14.70;78.60
13093;DHT22;6612;49.568;11.000;2022-09-28T08:15:32;14.80;78.50
13093;DHT22;6612;49.568;11.000;2022-09-28T08:18:02;14.90;79.80
13093;DHT22;6612;49.568;11.000;2022-09-28T08:20:30;15.00;81.60
13093;DHT22;6612;49.568;11.000;2022-09-28T08:23:15;15.20;82.80
13093;DHT22;6612;49.568;11.000;2022-09-28T08:25:45;15.40;82.20
13093;DHT22;6612;49.568;11.000;2022-09-28T08:28:14;15.60;80.30
13093;DHT22;6612;49.568;11.000;2022-09-28T08:30:42;15.70;79.30
13093;DHT22;6612;49.568;11.000;2022-09-28T08:33:10;15.70;78.00
13093;DHT22;6612;49.568;11.000;2022-09-28T08:35:38;15.80;77.70
13093;DHT22;6612;49.568;11.000;2022-09-28T08:38:07;15.80;76.90
13093;DHT22;6612;49.568;11.000;2022-09-28T08:40:38;15.80;76.70
13093;DHT22;6612;49.568;11.000;2022-09-28T08:43:24;15.80;75.90
13093;DHT22;6612;49.568;11.000;2022-09-28T08:45:58;15.80;75.00
13093;DHT22;6612;49.568;11.000;2022-09-28T08:48:31;15.80;76.30
13093;DHT22;6612;49.568;11.000;2022-09-28T08:51:17;15.80;76.20
13093;DHT22;6612;49.568;11.000;2022-09-28T08:53:51;15.90;76.70
13093;DHT22;6612;49.568;11.000;2022-09-28T08:56:26;15.90;77.10
13093;DHT22;6612;49.568;11.000;2022-09-28T08:58:57;16.10;78.30
13093;DHT22;6612;49.568;11.000;2022-09-28T09:01:30;16.20;78.70
13093;DHT22;6612;49.568;11.000;2022-09-28T09:03:58;16.30;78.80
13093;DHT22;6612;49.568;11.000;2022-09-28T09:06:35;16.50;80.00
13093;DHT22;6612;49.568;11.000;2022-09-28T09:09:09;16.70;78.50
13093;DHT22;6612;49.568;11.000;2022-09-28T09:11:50;16.90;79.10
13093;DHT22;6612;49.568;11.000;2022-09-28T09:17:24;17.30;77.80
13093;DHT22;6612;49.568;11.000;2022-09-28T09:19:54;17.60;78.20
13093;DHT22;6612;49.568;11.000;2022-09-28T09:22:37;17.70;78.90
13093;DHT22;6612;49.568;11.000;2022-09-28T09:25:16;17.90;77.10
13093;DHT22;6612;49.568;11.000;2022-09-28T09:28:07;18.10;75.30
13093;DHT22;6612;49.568;11.000;2022-09-28T09:30:42;18.10;73.60
13093;DHT22;6612;49.568;11.000;2022-09-28T09:33:32;18.10;72.00
13093;DHT22;6612;49.568;11.000;2022-09-28T09:36:11;18.00;69.30
13093;DHT22;6612;49.568;11.000;2022-09-28T09:38:48;17.90;69.30
13093;DHT22;6612;49.568;11.000;2022-09-28T09:41:24;17.70;68.80
13093;DHT22;6612;49.568;11.000;2022-09-28T09:44:08;17.60;68.40
13093;DHT22;6612;49.568;11.000;2022-09-28T09:46:40;17.40;67.70
13093;DHT22;6612;49.568;11.000;2022-09-28T09:49:13;17.30;69.80
13093;DHT22;6612;49.568;11.000;2022-09-28T09:51:44;17.30;74.00
13093;DHT22;6612;49.568;11.000;2022-09-28T09:54:19;17.40;77.50
13093;DHT22;6612;49.568;11.000;2022-09-28T09:56:51;17.60;76.10
13093;DHT22;6612;49.568;11.000;2022-09-28T09:59:22;17.80;74.00
13093;DHT22;6612;49.568;11.000;2022-09-28T10:01:51;17.90;72.00
13093;DHT22;6612;49.568;11.000;2022-09-28T10:04:22;18.00;70.40
13093;DHT22;6612;49.568;11.000;2022-09-28T10:06:56;17.90;69.10
13093;DHT22;6612;49.568;11.000;2022-09-28T10:09:26;17.80;67.80
13093;DHT22;6612;49.568;11.000;2022-09-28T10:11:56;17.70;68.00
13093;DHT22;6612;49.568;11.000;2022-09-28T10:14:23;17.60;67.70
13093;DHT22;6612;49.568;11.000;2022-09-28T10:16:52;17.50;67.50
13093;DHT22;6612;49.568;11.000;2022-09-28T10:19:24;17.40;67.80
13093;DHT22;6612;49.568;11.000;2022-09-28T10:21:53;17.30;68.00
13093;DHT22;6612;49.568;11.000;2022-09-28T10:24:28;17.20;67.90
13093;DHT22;6612;49.568;11.000;2022-09-28T10:26:59;17.20;69.00
13093;DHT22;6612;49.568;11.000;2022-09-28T10:29:35;17.30;71.90
13093;DHT22;6612;49.568;11.000;2022-09-28T10:32:17;17.40;73.00
13093;DHT22;6612;49.568;11.000;2022-09-28T10:34:44;17.60;72.60
13093;DHT22;6612;49.568;11.000;2022-09-28T10:37:11;17.90;74.00
13093;DHT22;6612;49.568;11.000;2022-09-28T10:39:45;18.10;73.80
13093;DHT22;6612;49.568;11.000;2022-09-28T10:42:19;18.40;74.40
13093;DHT22;6612;49.568;11.000;2022-09-28T10:44:52;18.70;75.40
13093;DHT22;6612;49.568;11.000;2022-09-28T10:47:22;19.10;76.70
13093;DHT22;6612;49.568;11.000;2022-09-28T10:49:51;19.40;77.30
13093;DHT22;6612;49.568;11.000;2022-09-28T10:52:37;19.80;74.50
13093;DHT22;6612;49.568;11.000;2022-09-28T10:55:26;20.00;68.30
13093;DHT22;6612;49.568;11.000;2022-09-28T10:57:53;20.10;68.30
13093;DHT22;6612;49.568;11.000;2022-09-28T11:00:31;20.00;66.90
13093;DHT22;6612;49.568;11.000;2022-09-28T11:02:58;19.70;64.80
13093;DHT22;6612;49.568;11.000;2022-09-28T11:05:25;19.60;64.50
13093;DHT22;6612;49.568;11.000;2022-09-28T11:07:54;19.40;64.40
13093;DHT22;6612;49.568;11.000;2022-09-28T11:10:23;19.20;64.60
13093;DHT22;6612;49.568;11.000;2022-09-28T11:12:52;18.80;63.70
13093;DHT22;6612;49.568;11.000;2022-09-28T11:15:23;18.80;63.50
13093;DHT22;6612;49.568;11.000;2022-09-28T11:17:50;18.60;64.30
13093;DHT22;6612;49.568;11.000;2022-09-28T11:20:31;18.50;65.40
13093;DHT22;6612;49.568;11.000;2022-09-28T11:23:16;18.30;64.30
13093;DHT22;6612;49.568;11.000;2022-09-28T11:25:55;18.30;64.10
13093;DHT22;6612;49.568;11.000;2022-09-28T11:28:29;18.30;63.80
13093;DHT22;6612;49.568;11.000;2022-09-28T11:30:57;18.30;64.80
13093;DHT22;6612;49.568;11.000;2022-09-28T11:33:29;18.20;65.60
13093;DHT22;6612;49.568;11.000;2022-09-28T11:36:11;18.20;63.30
13093;DHT22;6612;49.568;11.000;2022-09-28T11:38:47;18.10;63.40
13093;DHT22;6612;49.568;11.000;2022-09-28T11:41:52;18.00;63.00
13093;DHT22;6612;49.568;11.000;2022-09-28T11:44:36;18.00;62.00
13093;DHT22;6612;49.568;11.000;2022-09-28T11:47:17;18.00;62.90
13093;DHT22;6612;49.568;11.000;2022-09-28T11:49:48;17.90;64.40
13093;DHT22;6612;49.568;11.000;2022-09-28T11:52:21;18.00;65.60
13093;DHT22;6612;49.568;11.000;2022-09-28T11:54:54;18.00;65.90
13093;DHT22;6612;49.568;11.000;2022-09-28T11:57:26;18.00;66.00
13093;DHT22;6612;49.568;11.000;2022-09-28T11:59:58;18.00;66.00
13093;DHT22;6612;49.568;11.000;2022-09-28T12:02:31;18.10;65.50
13093;DHT22;6612;49.568;11.000;2022-09-28T12:05:10;18.10;64.60
13093;DHT22;6612;49.568;11.000;2022-09-28T12:07:42;18.00;63.80
13093;DHT22;6612;49.568;11.000;2022-09-28T12:10:15;18.00;64.40
13093;DHT22;6612;49.568;11.000;2022-09-28T12:12:48;18.00;63.90
13093;DHT22;6612;49.568;11.000;2022-09-28T12:15:20;18.00;63.60
13093;DHT22;6612;49.568;11.000;2022-09-28T12:17:51;17.90;64.00
13093;DHT22;6612;49.568;11.000;2022-09-28T12:20:23;18.00;63.90
13093;DHT22;6612;49.568;11.000;2022-09-28T12:23:00;17.90;64.00
13093;DHT22;6612;49.568;11.000;2022-09-28T12:25:33;17.90;63.80
13093;DHT22;6612;49.568;11.000;2022-09-28T12:28:05;18.00;63.90
13093;DHT22;6612;49.568;11.000;2022-09-28T12:30:36;17.90;63.90
13093;DHT22;6612;49.568;11.000;2022-09-28T12:33:07;17.90;63.70
13093;DHT22;6612;49.568;11.000;2022-09-28T12:35:49;17.90;63.70
13093;DHT22;6612;49.568;11.000;2022-09-28T12:38:29;17.90;63.60
13093;DHT22;6612;49.568;11.000;2022-09-28T12:41:05;17.90;63.70
13093;DHT22;6612;49.568;11.000;2022-09-28T12:46:46;18.00;62.90
13093;DHT22;6612;49.568;11.000;2022-09-28T12:49:28;18.00;63.40
13093;DHT22;6612;49.568;11.000;2022-09-28T12:51:58;18.00;63.70
13093;DHT22;6612;49.568;11.000;2022-09-28T12:57:32;18.00;62.30
13093;DHT22;6612;49.568;11.000;2022-09-28T13:00:03;18.10;62.40
13093;DHT22;6612;49.568;11.000;2022-09-28T13:02:49;18.10;64.00
13093;DHT22;6612;49.568;11.000;2022-09-28T13:05:43;18.10;63.80
13093;DHT22;6612;49.568;11.000;2022-09-28T13:08:21;18.20;62.20
13093;DHT22;6612;49.568;11.000;2022-09-28T13:10:57;18.20;64.00
13093;DHT22;6612;49.568;11.000;2022-09-28T13:13:37;18.30;64.50
13093;DHT22;6612;49.568;11.000;2022-09-28T13:16:08;18.30;63.40
13093;DHT22;6612;49.568;11.000;2022-09-28T13:18:49;18.40;63.70
13093;DHT22;6612;49.568;11.000;2022-09-28T13:21:27;18.40;61.70
13093;DHT22;6612;49.568;11.000;2022-09-28T13:23:59;18.40;61.70
13093;DHT22;6612;49.568;11.000;2022-09-28T13:26:31;18.40;62.60
13093;DHT22;6612;49.568;11.000;2022-09-28T13:29:02;18.40;62.50
13093;DHT22;6612;49.568;11.000;2022-09-28T13:31:31;18.30;62.70
13093;DHT22;6612;49.568;11.000;2022-09-28T13:34:02;18.30;61.50
13093;DHT22;6612;49.568;11.000;2022-09-28T13:36:36;18.30;60.80
13093;DHT22;6612;49.568;11.000;2022-09-28T13:42:06;18.20;59.50
13093;DHT22;6612;49.568;11.000;2022-09-28T13:44:59;18.10;62.10
13093;DHT22;6612;49.568;11.000;2022-09-28T13:47:56;18.10;59.80
13093;DHT22;6612;49.568;11.000;2022-09-28T13:50:36;18.00;60.10
13093;DHT22;6612;49.568;11.000;2022-09-28T13:53:15;18.00;59.90
13093;DHT22;6612;49.568;11.000;2022-09-28T13:55:55;17.90;59.80
13093;DHT22;6612;49.568;11.000;2022-09-28T13:58:26;17.90;61.60
13093;DHT22;6612;49.568;11.000;2022-09-28T14:00:58;17.80;61.20
13093;DHT22;6612;49.568;11.000;2022-09-28T14:03:42;17.80;60.30
13093;DHT22;6612;49.568;11.000;2022-09-28T14:06:25;17.70;60.30
13093;DHT22;6612;49.568;11.000;2022-09-28T14:11:57;17.70;60.90
13093;DHT22;6612;49.568;11.000;2022-09-28T14:14:30;17.70;62.10
13093;DHT22;6612;49.568;11.000;2022-09-28T14:20:16;17.60;59.10
13093;DHT22;6612;49.568;11.000;2022-09-28T14:23:01;17.40;60.10
13093;DHT22;6612;49.568;11.000;2022-09-28T14:25:41;17.50;59.10
13093;DHT22;6612;49.568;11.000;2022-09-28T14:28:35;17.40;60.70
13093;DHT22;6612;49.568;11.000;2022-09-28T14:31:13;17.40;58.80
13093;DHT22;6612;49.568;11.000;2022-09-28T14:33:40;17.30;60.90
13093;DHT22;6612;49.568;11.000;2022-09-28T14:36:22;17.30;61.50
13093;DHT22;6612;49.568;11.000;2022-09-28T14:39:25;17.20;60.40
13093;DHT22;6612;49.568;11.000;2022-09-28T14:42:12;17.20;61.30
13093;DHT22;6612;49.568;11.000;2022-09-28T14:47:41;17.10;61.00
13093;DHT22;6612;49.568;11.000;2022-09-28T14:50:22;17.10;62.50
13093;DHT22;6612;49.568;11.000;2022-09-28T14:52:51;17.10;61.90
13093;DHT22;6612;49.568;11.000;2022-09-28T14:55:30;17.00;62.00
13093;DHT22;6612;49.568;11.000;2022-09-28T14:57:58;17.00;61.90
13093;DHT22;6612;49.568;11.000;2022-09-28T15:00:27;17.00;62.70
13093;DHT22;6612;49.568;11.000;2022-09-28T15:02:59;17.00;62.30
13093;DHT22;6612;49.568;11.000;2022-09-28T15:05:31;17.00;62.00
13093;DHT22;6612;49.568;11.000;2022-09-28T15:08:00;17.00;61.60
13093;DHT22;6612;49.568;11.000;2022-09-28T15:10:32;17.00;62.00
13093;DHT22;6612;49.568;11.000;2022-09-28T15:13:00;17.10;61.10
13093;DHT22;6612;49.568;11.000;2022-09-28T15:15:32;17.00;61.70
13093;DHT22;6612;49.568;11.000;2022-09-28T15:18:21;16.90;61.00
13093;DHT22;6612;49.568;11.000;2022-09-28T15:20:52;16.80;60.40
13093;DHT22;6612;49.568;11.000;2022-09-28T15:23:25;16.80;61.40
13093;DHT22;6612;49.568;11.000;2022-09-28T15:25:55;16.70;59.80
13093;DHT22;6612;49.568;11.000;2022-09-28T15:28:22;16.60;60.30
13093;DHT22;6612;49.568;11.000;2022-09-28T15:30:50;16.50;60.20
13093;DHT22;6612;49.568;11.000;2022-09-28T15:33:25;16.40;60.50
13093;DHT22;6612;49.568;11.000;2022-09-28T15:36:15;16.30;59.50
13093;DHT22;6612;49.568;11.000;2022-09-28T15:38:49;16.30;60.30
13093;DHT22;6612;49.568;11.000;2022-09-28T15:41:18;16.20;60.70
13093;DHT22;6612;49.568;11.000;2022-09-28T15:44:07;16.10;60.90
13093;DHT22;6612;49.568;11.000;2022-09-28T15:46:42;16.10;60.40
13093;DHT22;6612;49.568;11.000;2022-09-28T15:49:22;16.10;61.80
13093;DHT22;6612;49.568;11.000;2022-09-28T15:51:51;16.00;60.30
13093;DHT22;6612;49.568;11.000;2022-09-28T15:54:24;16.00;61.90
13093;DHT22;6612;49.568;11.000;2022-09-28T15:56:55;16.00;61.60
13093;DHT22;6612;49.568;11.000;2022-09-28T15:59:30;16.00;62.00
13093;DHT22;6612;49.568;11.000;2022-09-28T16:02:07;16.00;62.00
13093;DHT22;6612;49.568;11.000;2022-09-28T16:04:38;16.00;62.20
13093;DHT22;6612;49.568;11.000;2022-09-28T16:07:22;16.00;62.50
13093;DHT22;6612;49.568;11.000;2022-09-28T16:09:57;15.90;62.10
13093;DHT22;6612;49.568;11.000;2022-09-28T16:12:28;15.90;62.00
13093;DHT22;6612;49.568;11.000;2022-09-28T16:14:57;15.90;62.30
13093;DHT22;6612;49.568;11.000;2022-09-28T16:17:29;15.90;62.40
13093;DHT22;6612;49.568;11.000;2022-09-28T16:19:58;15.90;62.00
13093;DHT22;6612;49.568;11.000;2022-09-28T16:22:27;15.80;62.20